sensor_id;sensor_type;location;lat;lon;timestamp;temperature;humidity
2955;DHT22;1487;51.470;6.938;2023-07-30T00:01:33;15.70;99.90
2955;DHT22;1487;51.470;6.938;2023-07-30T00:04:00;15.70;99.90
2955;DHT22;1487;51.470;6.938;2023-07-30T00:06:27;15.60;99.90
2955;DHT22;1487;51.470;6.938;2023-07-30T00:08:53;15.60;99.90
2955;DHT22;1487;51.470;6.938;2023-07-30T00:11:21;15.50;99.90
2955;DHT22;1487;51.470;6.938;2023-07-30T00:13:48;15.50;99.90
2955;DHT22;1487;51.470;6.938;2023-07-30T00:16:15;15.50;99.90
2955;DHT22;1487;51.470;6.938;2023-07-30T00:18:42;15.50;99.90
2955;DHT22;1487;51.470;6.938;2023-07-30T00:21:09;15.50;99.90
2955;DHT22;1487;51.470;6.938;2023-07-30T00:23:35;15.50;99.90
2955;DHT22;1487;51.470;6.938;2023-07-30T00:26:02;15.40;99.90
2955;DHT22;1487;51.470;6.938;2023-07-30T00:28:30;15.30;99.90
2955;DHT22;1487;51.470;6.938;2023-07-30T00:30:57;15.30;99.90
2955;DHT22;1487;51.470;6.938;2023-07-30T00:33:24;15.30;99.90
2955;DHT22;1487;51.470;6.938;2023-07-30T00:35:51;15.20;99.90
2955;DHT22;1487;51.470;6.938;2023-07-30T00:38:17;15.20;99.90
2955;DHT22;1487;51.470;6.938;2023-07-30T00:40:45;15.10;99.90
2955;DHT22;1487;51.470;6.938;2023-07-30T00:43:11;15.10;99.90
2955;DHT22;1487;51.470;6.938;2023-07-30T00:45:42;15.00;99.90
2955;DHT22;1487;51.470;6.938;2023-07-30T00:48:09;15.00;99.90
2955;DHT22;1487;51.470;6.938;2023-07-30T00:50:37;14.90;99.90
2955;DHT22;1487;51.470;6.938;2023-07-30T00:53:04;14.90;99.90
2955;DHT22;1487;51.470;6.938;2023-07-30T00:55:32;14.90;99.90
2955;DHT22;1487;51.470;6.938;2023-07-30T00:57:59;14.80;99.90
2955;DHT22;1487;51.470;6.938;2023-07-30T01:00:26;14.80;99.90
2955;DHT22;1487;51.470;6.938;2023-07-30T01:02:56;14.80;99.90
2955;DHT22;1487;51.470;6.938;2023-07-30T01:05:23;14.80;99.90
2955;DHT22;1487;51.470;6.938;2023-07-30T01:07:50;14.90;99.90
2955;DHT22;1487;51.470;6.938;2023-07-30T01:10:16;14.80;99.90
2955;DHT22;1487;51.470;6.938;2023-07-30T01:12:44;14.90;99.90
2955;DHT22;1487;51.470;6.938;2023-07-30T01:15:12;14.90;99.90
2955;DHT22;1487;51.470;6.938;2023-07-30T01:17:39;14.90;99.90
2955;DHT22;1487;51.470;6.938;2023-07-30T01:20:09;14.90;99.90
2955;DHT22;1487;51.470;6.938;2023-07-30T01:22:38;14.90;99.90
2955;DHT22;1487;51.470;6.938;2023-07-30T01:25:05;14.90;99.90
2955;DHT22;1487;51.470;6.938;2023-07-30T01:27:37;14.90;99.90
2955;DHT22;1487;51.470;6.938;2023-07-30T01:30:10;14.90;99.90
2955;DHT22;1487;51.470;6.938;2023-07-30T01:32:40;14.90;99.90
2955;DHT22;1487;51.470;6.938;2023-07-30T01:35:09;14.80;99.90
2955;DHT22;1487;51.470;6.938;2023-07-30T01:37:38;14.80;99.90
2955;DHT22;1487;51.470;6.938;2023-07-30T01:40:07;14.80;99.90
2955;DHT22;1487;51.470;6.938;2023-07-30T01:42:34;14.80;99.90
2955;DHT22;1487;51.470;6.938;2023-07-30T01:45:00;14.80;99.90
2955;DHT22;1487;51.470;6.938;2023-07-30T01:47:27;14.70;99.90
2955;DHT22;1487;51.470;6.938;2023-07-30T01:49:54;14.60;99.90
2955;DHT22;1487;51.470;6.938;2023-07-30T01:52:21;14.60;99.90
2955;DHT22;1487;51.470;6.938;2023-07-30T01:54:49;14.60;99.90
2955;DHT22;1487;51.470;6.938;2023-07-30T01:57:16;14.60;99.90
2955;DHT22;1487;51.470;6.938;2023-07-30T01:59:42;14.60;99.90
2955;DHT22;1487;51.470;6.938;2023-07-30T02:02:09;14.60;99.90
2955;DHT22;1487;51.470;6.938;2023-07-30T02:04:36;14.60;99.90
2955;DHT22;1487;51.470;6.938;2023-07-30T02:07:03;14.50;99.90
2955;DHT22;1487;51.470;6.938;2023-07-30T02:09:30;14.60;99.90
2955;DHT22;1487;51.470;6.938;2023-07-30T02:11:58;14.60;99.90
2955;DHT22;1487;51.470;6.938;2023-07-30T02:14:25;14.60;99.90
2955;DHT22;1487;51.470;6.938;2023-07-30T02:16:52;14.60;99.90
2955;DHT22;1487;51.470;6.938;2023-07-30T02:19:19;14.60;99.90
2955;DHT22;1487;51.470;6.938;2023-07-30T02:21:45;14.60;99.90
2955;DHT22;1487;51.470;6.938;2023-07-30T02:24:12;14.60;99.90
2955;DHT22;1487;51.470;6.938;2023-07-30T02:26:39;14.60;99.90
2955;DHT22;1487;51.470;6.938;2023-07-30T02:29:07;14.60;99.90
2955;DHT22;1487;51.470;6.938;2023-07-30T02:31:34;14.60;99.90
2955;DHT22;1487;51.470;6.938;2023-07-30T02:34:01;14.60;99.90
2955;DHT22;1487;51.470;6.938;2023-07-30T02:36:27;14.60;99.90
2955;DHT22;1487;51.470;6.938;2023-07-30T02:38:54;14.60;99.90
2955;DHT22;1487;51.470;6.938;2023-07-30T02:41:21;14.60;99.90
2955;DHT22;1487;51.470;6.938;2023-07-30T02:43:48;14.60;99.90
2955;DHT22;1487;51.470;6.938;2023-07-30T02:46:16;14.60;99.90
2955;DHT22;1487;51.470;6.938;2023-07-30T02:48:42;14.60;99.90
2955;DHT22;1487;51.470;6.938;2023-07-30T02:51:09;14.50;99.90
2955;DHT22;1487;51.470;6.938;2023-07-30T02:53:36;14.50;99.90
2955;DHT22;1487;51.470;6.938;2023-07-30T02:56:03;14.50;99.90
2955;DHT22;1487;51.470;6.938;2023-07-30T02:58:30;14.40;99.90
2955;DHT22;1487;51.470;6.938;2023-07-30T03:01:05;14.40;99.90
2955;DHT22;1487;51.470;6.938;2023-07-30T03:03:33;14.40;99.90
2955;DHT22;1487;51.470;6.938;2023-07-30T03:06:00;14.30;99.90
2955;DHT22;1487;51.470;6.938;2023-07-30T03:08:26;14.40;99.90
2955;DHT22;1487;51.470;6.938;2023-07-30T03:10:53;14.40;99.90
2955;DHT22;1487;51.470;6.938;2023-07-30T03:13:20;14.30;99.90
2955;DHT22;1487;51.470;6.938;2023-07-30T03:15:47;14.30;99.90
2955;DHT22;1487;51.470;6.938;2023-07-30T03:18:13;14.30;99.90
2955;DHT22;1487;51.470;6.938;2023-07-30T03:20:42;14.20;99.90
2955;DHT22;1487;51.470;6.938;2023-07-30T03:23:08;14.20;99.90
2955;DHT22;1487;51.470;6.938;2023-07-30T03:25:35;14.30;99.90
2955;DHT22;1487;51.470;6.938;2023-07-30T03:28:02;14.20;99.90
2955;DHT22;1487;51.470;6.938;2023-07-30T03:30:29;14.20;99.90
2955;DHT22;1487;51.470;6.938;2023-07-30T03:32:55;14.20;99.90
2955;DHT22;1487;51.470;6.938;2023-07-30T03:35:22;14.20;99.90
2955;DHT22;1487;51.470;6.938;2023-07-30T03:37:51;14.20;99.90
2955;DHT22;1487;51.470;6.938;2023-07-30T03:40:18;14.10;99.90
2955;DHT22;1487;51.470;6.938;2023-07-30T03:42:44;14.10;99.90
2955;DHT22;1487;51.470;6.938;2023-07-30T03:45:11;14.10;99.90
2955;DHT22;1487;51.470;6.938;2023-07-30T03:47:38;14.00;99.90
2955;DHT22;1487;51.470;6.938;2023-07-30T03:50:05;14.00;99.90
2955;DHT22;1487;51.470;6.938;2023-07-30T03:52:32;14.00;99.90
2955;DHT22;1487;51.470;6.938;2023-07-30T03:55:00;14.00;99.90
2955;DHT22;1487;51.470;6.938;2023-07-30T03:57:27;14.00;99.90
2955;DHT22;1487;51.470;6.938;2023-07-30T03:59:54;14.00;99.90
2955;DHT22;1487;51.470;6.938;2023-07-30T04:02:21;14.00;99.90
2955;DHT22;1487;51.470;6.938;2023-07-30T04:04:47;14.00;99.90
2955;DHT22;1487;51.470;6.938;2023-07-30T04:07:15;14.00;99.90
2955;DHT22;1487;51.470;6.938;2023-07-30T04:09:42;14.10;99.90
2955;DHT22;1487;51.470;6.938;2023-07-30T04:12:10;14.10;99.90
2955;DHT22;1487;51.470;6.938;2023-07-30T04:14:37;14.10;99.90
2955;DHT22;1487;51.470;6.938;2023-07-30T04:17:03;14.20;99.90
2955;DHT22;1487;51.470;6.938;2023-07-30T04:19:30;14.20;99.90
2955;DHT22;1487;51.470;6.938;2023-07-30T04:21:57;14.30;99.90
2955;DHT22;1487;51.470;6.938;2023-07-30T04:24:24;14.30;99.90
2955;DHT22;1487;51.470;6.938;2023-07-30T04:26:51;14.40;99.90
2955;DHT22;1487;51.470;6.938;2023-07-30T04:29:19;14.50;99.90
2955;DHT22;1487;51.470;6.938;2023-07-30T04:31:46;14.60;99.90
2955;DHT22;1487;51.470;6.938;2023-07-30T04:34:13;14.60;99.90
2955;DHT22;1487;51.470;6.938;2023-07-30T04:36:40;14.70;99.90
2955;DHT22;1487;51.470;6.938;2023-07-30T04:39:07;14.70;99.90
2955;DHT22;1487;51.470;6.938;2023-07-30T04:41:34;14.80;99.90
2955;DHT22;1487;51.470;6.938;2023-07-30T04:44:00;14.90;99.90
2955;DHT22;1487;51.470;6.938;2023-07-30T04:46:28;14.90;99.90
2955;DHT22;1487;51.470;6.938;2023-07-30T04:48:56;15.00;99.90
2955;DHT22;1487;51.470;6.938;2023-07-30T04:51:22;15.10;99.90
2955;DHT22;1487;51.470;6.938;2023-07-30T04:53:49;15.10;99.90
2955;DHT22;1487;51.470;6.938;2023-07-30T04:56:16;15.10;99.90
2955;DHT22;1487;51.470;6.938;2023-07-30T04:58:43;15.10;99.90
2955;DHT22;1487;51.470;6.938;2023-07-30T05:01:09;15.20;99.90
2955;DHT22;1487;51.470;6.938;2023-07-30T05:03:37;15.20;99.90
2955;DHT22;1487;51.470;6.938;2023-07-30T05:06:05;15.30;99.90
2955;DHT22;1487;51.470;6.938;2023-07-30T05:08:31;15.30;99.90
2955;DHT22;1487;51.470;6.938;2023-07-30T05:10:58;15.30;99.90
2955;DHT22;1487;51.470;6.938;2023-07-30T05:13:25;15.40;99.90
2955;DHT22;1487;51.470;6.938;2023-07-30T05:15:52;15.40;99.90
2955;DHT22;1487;51.470;6.938;2023-07-30T05:18:18;15.40;99.90
2955;DHT22;1487;51.470;6.938;2023-07-30T05:20:47;15.40;99.90
2955;DHT22;1487;51.470;6.938;2023-07-30T05:23:14;15.50;99.90
2955;DHT22;1487;51.470;6.938;2023-07-30T05:25:41;15.50;99.90
2955;DHT22;1487;51.470;6.938;2023-07-30T05:28:07;15.50;99.90
2955;DHT22;1487;51.470;6.938;2023-07-30T05:30:34;15.60;99.90
2955;DHT22;1487;51.470;6.938;2023-07-30T05:33:01;15.60;99.90
2955;DHT22;1487;51.470;6.938;2023-07-30T05:35:28;15.70;99.90
2955;DHT22;1487;51.470;6.938;2023-07-30T05:37:56;15.70;99.90
2955;DHT22;1487;51.470;6.938;2023-07-30T05:40:23;15.70;99.90
2955;DHT22;1487;51.470;6.938;2023-07-30T05:42:50;15.80;99.90
2955;DHT22;1487;51.470;6.938;2023-07-30T05:45:17;15.80;99.90
2955;DHT22;1487;51.470;6.938;2023-07-30T05:47:43;15.80;99.90
2955;DHT22;1487;51.470;6.938;2023-07-30T05:50:10;15.80;99.90
2955;DHT22;1487;51.470;6.938;2023-07-30T05:52:37;15.90;99.90
2955;DHT22;1487;51.470;6.938;2023-07-30T05:55:06;15.90;99.90
2955;DHT22;1487;51.470;6.938;2023-07-30T05:57:33;15.90;99.90
2955;DHT22;1487;51.470;6.938;2023-07-30T05:59:59;15.90;99.90
2955;DHT22;1487;51.470;6.938;2023-07-30T06:02:26;15.80;99.90
2955;DHT22;1487;51.470;6.938;2023-07-30T06:04:53;15.80;99.90
2955;DHT22;1487;51.470;6.938;2023-07-30T06:07:20;15.70;99.90
2955;DHT22;1487;51.470;6.938;2023-07-30T06:09:47;15.80;99.90
2955;DHT22;1487;51.470;6.938;2023-07-30T06:12:15;15.80;99.90
2955;DHT22;1487;51.470;6.938;2023-07-30T06:14:41;15.80;99.90
2955;DHT22;1487;51.470;6.938;2023-07-30T06:17:08;15.80;99.90
2955;DHT22;1487;51.470;6.938;2023-07-30T06:19:35;15.90;99.90
2955;DHT22;1487;51.470;6.938;2023-07-30T06:22:02;15.90;99.90
2955;DHT22;1487;51.470;6.938;2023-07-30T06:24:30;15.80;99.90
2955;DHT22;1487;51.470;6.938;2023-07-30T06:26:57;15.80;99.90
2955;DHT22;1487;51.470;6.938;2023-07-30T06:29:25;15.70;99.90
2955;DHT22;1487;51.470;6.938;2023-07-30T06:31:52;15.70;99.90
2955;DHT22;1487;51.470;6.938;2023-07-30T06:34:18;15.70;99.90
2955;DHT22;1487;51.470;6.938;2023-07-30T06:36:45;15.70;99.90
2955;DHT22;1487;51.470;6.938;2023-07-30T06:39:12;15.70;99.90
2955;DHT22;1487;51.470;6.938;2023-07-30T06:41:39;15.70;99.90
2955;DHT22;1487;51.470;6.938;2023-07-30T06:44:05;15.80;99.90
2955;DHT22;1487;51.470;6.938;2023-07-30T06:46:33;15.80;99.90
2955;DHT22;1487;51.470;6.938;2023-07-30T06:49:00;15.80;99.90
2955;DHT22;1487;51.470;6.938;2023-07-30T06:51:27;15.80;99.90
2955;DHT22;1487;51.470;6.938;2023-07-30T06:53:55;15.80;99.90
2955;DHT22;1487;51.470;6.938;2023-07-30T06:56:22;15.80;99.90
2955;DHT22;1487;51.470;6.938;2023-07-30T06:58:49;15.80;99.90
2955;DHT22;1487;51.470;6.938;2023-07-30T07:01:15;15.80;99.90
2955;DHT22;1487;51.470;6.938;2023-07-30T07:03:43;15.90;99.90
2955;DHT22;1487;51.470;6.938;2023-07-30T07:06:10;16.00;99.90
2955;DHT22;1487;51.470;6.938;2023-07-30T07:08:37;16.00;99.90
2955;DHT22;1487;51.470;6.938;2023-07-30T07:11:04;16.00;99.90
2955;DHT22;1487;51.470;6.938;2023-07-30T07:13:30;16.10;99.90
2955;DHT22;1487;51.470;6.938;2023-07-30T07:15:57;16.10;99.90
2955;DHT22;1487;51.470;6.938;2023-07-30T07:18:24;16.20;99.90
2955;DHT22;1487;51.470;6.938;2023-07-30T07:20:52;16.20;99.90
2955;DHT22;1487;51.470;6.938;2023-07-30T07:23:19;16.30;99.90
2955;DHT22;1487;51.470;6.938;2023-07-30T07:25:46;16.30;99.90
2955;DHT22;1487;51.470;6.938;2023-07-30T07:28:12;16.40;99.90
2955;DHT22;1487;51.470;6.938;2023-07-30T07:30:39;16.50;99.90
2955;DHT22;1487;51.470;6.938;2023-07-30T07:33:06;16.60;99.90
2955;DHT22;1487;51.470;6.938;2023-07-30T07:35:37;16.60;99.90
2955;DHT22;1487;51.470;6.938;2023-07-30T07:38:05;16.60;99.90
2955;DHT22;1487;51.470;6.938;2023-07-30T07:40:36;16.80;99.90
2955;DHT22;1487;51.470;6.938;2023-07-30T07:43:04;17.00;99.90
2955;DHT22;1487;51.470;6.938;2023-07-30T07:45:31;17.20;99.90
2955;DHT22;1487;51.470;6.938;2023-07-30T07:47:58;17.20;99.90
2955;DHT22;1487;51.470;6.938;2023-07-30T07:50:25;17.20;99.90
2955;DHT22;1487;51.470;6.938;2023-07-30T07:52:51;17.20;99.90
2955;DHT22;1487;51.470;6.938;2023-07-30T07:55:19;17.10;99.90
2955;DHT22;1487;51.470;6.938;2023-07-30T07:57:46;17.10;99.90
2955;DHT22;1487;51.470;6.938;2023-07-30T08:00:13;17.10;99.90
2955;DHT22;1487;51.470;6.938;2023-07-30T08:02:40;17.00;99.90
2955;DHT22;1487;51.470;6.938;2023-07-30T08:05:07;17.00;99.90
2955;DHT22;1487;51.470;6.938;2023-07-30T08:07:34;17.10;99.90
2955;DHT22;1487;51.470;6.938;2023-07-30T08:10:01;17.20;99.90
2955;DHT22;1487;51.470;6.938;2023-07-30T08:12:31;17.40;99.90
2955;DHT22;1487;51.470;6.938;2023-07-30T08:14:58;17.50;99.90
2955;DHT22;1487;51.470;6.938;2023-07-30T08:17:25;17.50;99.90
2955;DHT22;1487;51.470;6.938;2023-07-30T08:19:51;17.50;99.90
2955;DHT22;1487;51.470;6.938;2023-07-30T08:22:18;17.60;99.90
2955;DHT22;1487;51.470;6.938;2023-07-30T08:24:45;17.60;99.90
2955;DHT22;1487;51.470;6.938;2023-07-30T08:27:12;17.40;99.90
2955;DHT22;1487;51.470;6.938;2023-07-30T08:29:40;17.40;99.90
2955;DHT22;1487;51.470;6.938;2023-07-30T08:32:07;17.40;99.90
2955;DHT22;1487;51.470;6.938;2023-07-30T08:34:34;17.30;99.90
2955;DHT22;1487;51.470;6.938;2023-07-30T08:37:01;17.40;99.90
2955;DHT22;1487;51.470;6.938;2023-07-30T08:39:27;17.40;99.90
2955;DHT22;1487;51.470;6.938;2023-07-30T08:41:54;17.60;99.90
2955;DHT22;1487;51.470;6.938;2023-07-30T08:44:21;17.60;99.90
2955;DHT22;1487;51.470;6.938;2023-07-30T08:46:49;17.80;99.90
2955;DHT22;1487;51.470;6.938;2023-07-30T08:49:16;17.90;99.90
2955;DHT22;1487;51.470;6.938;2023-07-30T08:51:43;18.00;99.90
2955;DHT22;1487;51.470;6.938;2023-07-30T08:54:12;18.20;99.90
2955;DHT22;1487;51.470;6.938;2023-07-30T08:56:38;18.30;99.90
2955;DHT22;1487;51.470;6.938;2023-07-30T08:59:06;18.20;99.90
2955;DHT22;1487;51.470;6.938;2023-07-30T09:01:37;18.20;99.90
2955;DHT22;1487;51.470;6.938;2023-07-30T09:04:06;18.10;99.90
2955;DHT22;1487;51.470;6.938;2023-07-30T09:06:34;18.00;99.90
2955;DHT22;1487;51.470;6.938;2023-07-30T09:09:01;18.20;99.90
2955;DHT22;1487;51.470;6.938;2023-07-30T09:11:29;18.80;99.90
2955;DHT22;1487;51.470;6.938;2023-07-30T09:14:01;19.90;99.90
2955;DHT22;1487;51.470;6.938;2023-07-30T09:16:28;20.60;99.90
2955;DHT22;1487;51.470;6.938;2023-07-30T09:18:55;21.00;99.90
2955;DHT22;1487;51.470;6.938;2023-07-30T09:21:30;21.00;99.90
2955;DHT22;1487;51.470;6.938;2023-07-30T09:23:58;21.10;99.90
2955;DHT22;1487;51.470;6.938;2023-07-30T09:26:39;21.30;99.90
2955;DHT22;1487;51.470;6.938;2023-07-30T09:29:07;22.00;99.90
2955;DHT22;1487;51.470;6.938;2023-07-30T09:31:45;23.20;99.90
2955;DHT22;1487;51.470;6.938;2023-07-30T09:34:15;23.40;99.90
2955;DHT22;1487;51.470;6.938;2023-07-30T09:36:45;23.80;99.90
2955;DHT22;1487;51.470;6.938;2023-07-30T09:39:15;24.10;99.90
2955;DHT22;1487;51.470;6.938;2023-07-30T09:41:44;24.10;99.90
2955;DHT22;1487;51.470;6.938;2023-07-30T09:44:11;24.30;99.90
2955;DHT22;1487;51.470;6.938;2023-07-30T09:46:42;24.90;99.90
2955;DHT22;1487;51.470;6.938;2023-07-30T09:49:10;24.90;99.90
2955;DHT22;1487;51.470;6.938;2023-07-30T09:51:37;24.20;99.90
2955;DHT22;1487;51.470;6.938;2023-07-30T09:54:06;23.40;99.90
2955;DHT22;1487;51.470;6.938;2023-07-30T09:56:34;22.70;99.90
2955;DHT22;1487;51.470;6.938;2023-07-30T09:59:01;22.50;99.90
2955;DHT22;1487;51.470;6.938;2023-07-30T10:01:28;22.90;99.90
2955;DHT22;1487;51.470;6.938;2023-07-30T10:03:56;22.90;99.90
2955;DHT22;1487;51.470;6.938;2023-07-30T10:06:24;22.70;99.90
2955;DHT22;1487;51.470;6.938;2023-07-30T10:08:53;22.50;99.90
2955;DHT22;1487;51.470;6.938;2023-07-30T10:11:22;22.60;99.90
2955;DHT22;1487;51.470;6.938;2023-07-30T10:13:50;23.10;99.90
2955;DHT22;1487;51.470;6.938;2023-07-30T10:16:17;22.50;99.90
2955;DHT22;1487;51.470;6.938;2023-07-30T10:18:44;22.60;99.90
2955;DHT22;1487;51.470;6.938;2023-07-30T10:21:22;22.40;99.90
2955;DHT22;1487;51.470;6.938;2023-07-30T10:23:58;22.60;99.90
2955;DHT22;1487;51.470;6.938;2023-07-30T10:26:28;23.30;99.90
2955;DHT22;1487;51.470;6.938;2023-07-30T10:29:12;23.60;99.90
2955;DHT22;1487;51.470;6.938;2023-07-30T10:31:39;22.70;99.90
2955;DHT22;1487;51.470;6.938;2023-07-30T10:34:07;22.10;99.90
2955;DHT22;1487;51.470;6.938;2023-07-30T10:36:41;21.60;99.90
2955;DHT22;1487;51.470;6.938;2023-07-30T10:39:13;21.40;99.90
2955;DHT22;1487;51.470;6.938;2023-07-30T10:41:43;21.30;99.90
2955;DHT22;1487;51.470;6.938;2023-07-30T10:44:18;22.10;99.90
2955;DHT22;1487;51.470;6.938;2023-07-30T10:46:45;22.70;99.90
2955;DHT22;1487;51.470;6.938;2023-07-30T10:49:12;22.30;99.90
2955;DHT22;1487;51.470;6.938;2023-07-30T10:51:39;22.10;99.90
2955;DHT22;1487;51.470;6.938;2023-07-30T10:54:06;22.40;99.90
2955;DHT22;1487;51.470;6.938;2023-07-30T10:56:35;23.00;99.90
2955;DHT22;1487;51.470;6.938;2023-07-30T10:59:04;24.00;99.90
2955;DHT22;1487;51.470;6.938;2023-07-30T11:01:36;24.20;99.90
2955;DHT22;1487;51.470;6.938;2023-07-30T11:04:06;24.70;99.90
2955;DHT22;1487;51.470;6.938;2023-07-30T11:06:33;25.10;99.90
2955;DHT22;1487;51.470;6.938;2023-07-30T11:09:00;24.90;99.90
2955;DHT22;1487;51.470;6.938;2023-07-30T11:11:27;24.60;99.90
2955;DHT22;1487;51.470;6.938;2023-07-30T11:13:54;24.10;99.90
2955;DHT22;1487;51.470;6.938;2023-07-30T11:16:22;24.30;99.90
2955;DHT22;1487;51.470;6.938;2023-07-30T11:18:49;23.90;99.90
2955;DHT22;1487;51.470;6.938;2023-07-30T11:21:17;23.90;99.90
2955;DHT22;1487;51.470;6.938;2023-07-30T11:23:45;24.10;99.90
2955;DHT22;1487;51.470;6.938;2023-07-30T11:26:15;23.80;99.90
2955;DHT22;1487;51.470;6.938;2023-07-30T11:28:42;23.40;99.90
2955;DHT22;1487;51.470;6.938;2023-07-30T11:31:11;22.80;99.90
2955;DHT22;1487;51.470;6.938;2023-07-30T11:33:41;22.40;99.90
2955;DHT22;1487;51.470;6.938;2023-07-30T11:36:10;22.00;99.90
2955;DHT22;1487;51.470;6.938;2023-07-30T11:38:38;21.90;99.90
2955;DHT22;1487;51.470;6.938;2023-07-30T11:41:06;22.00;99.90
2955;DHT22;1487;51.470;6.938;2023-07-30T11:43:36;22.10;99.90
2955;DHT22;1487;51.470;6.938;2023-07-30T11:46:07;21.80;99.90
2955;DHT22;1487;51.470;6.938;2023-07-30T11:48:34;21.70;99.90
2955;DHT22;1487;51.470;6.938;2023-07-30T11:51:03;22.30;99.90
2955;DHT22;1487;51.470;6.938;2023-07-30T11:53:46;22.90;99.90
2955;DHT22;1487;51.470;6.938;2023-07-30T11:56:22;22.80;99.90
2955;DHT22;1487;51.470;6.938;2023-07-30T11:58:50;23.00;99.90
2955;DHT22;1487;51.470;6.938;2023-07-30T12:01:18;23.40;99.90
2955;DHT22;1487;51.470;6.938;2023-07-30T12:03:45;24.60;99.90
2955;DHT22;1487;51.470;6.938;2023-07-30T12:06:13;25.30;99.90
2955;DHT22;1487;51.470;6.938;2023-07-30T12:08:40;25.00;99.90
2955;DHT22;1487;51.470;6.938;2023-07-30T12:11:09;24.30;99.90
2955;DHT22;1487;51.470;6.938;2023-07-30T12:13:42;24.20;99.90
2955;DHT22;1487;51.470;6.938;2023-07-30T12:16:11;24.20;99.90
2955;DHT22;1487;51.470;6.938;2023-07-30T12:18:38;23.70;99.90
2955;DHT22;1487;51.470;6.938;2023-07-30T12:21:06;23.90;99.90
2955;DHT22;1487;51.470;6.938;2023-07-30T12:23:34;23.70;99.90
2955;DHT22;1487;51.470;6.938;2023-07-30T12:26:02;23.30;99.90
2955;DHT22;1487;51.470;6.938;2023-07-30T12:28:31;23.70;99.90
2955;DHT22;1487;51.470;6.938;2023-07-30T12:30:58;24.20;99.90
2955;DHT22;1487;51.470;6.938;2023-07-30T12:33:25;24.90;99.90
2955;DHT22;1487;51.470;6.938;2023-07-30T12:35:51;25.30;99.40
2955;DHT22;1487;51.470;6.938;2023-07-30T12:38:18;25.80;97.20
2955;DHT22;1487;51.470;6.938;2023-07-30T12:40:47;25.80;96.80
2955;DHT22;1487;51.470;6.938;2023-07-30T12:43:13;25.80;95.80
2955;DHT22;1487;51.470;6.938;2023-07-30T12:45:40;26.10;94.50
2955;DHT22;1487;51.470;6.938;2023-07-30T12:48:07;26.10;93.70
2955;DHT22;1487;51.470;6.938;2023-07-30T12:50:34;25.60;93.70
2955;DHT22;1487;51.470;6.938;2023-07-30T12:53:00;24.90;95.70
2955;DHT22;1487;51.470;6.938;2023-07-30T12:55:27;24.00;96.20
2955;DHT22;1487;51.470;6.938;2023-07-30T12:57:55;23.50;98.20
2955;DHT22;1487;51.470;6.938;2023-07-30T13:00:22;22.90;99.90
2955;DHT22;1487;51.470;6.938;2023-07-30T13:02:49;22.60;99.90
2955;DHT22;1487;51.470;6.938;2023-07-30T13:05:17;22.10;99.90
2955;DHT22;1487;51.470;6.938;2023-07-30T13:07:44;22.00;99.90
2955;DHT22;1487;51.470;6.938;2023-07-30T13:10:11;21.90;99.90
2955;DHT22;1487;51.470;6.938;2023-07-30T13:12:38;22.20;99.90
2955;DHT22;1487;51.470;6.938;2023-07-30T13:15:07;23.00;99.90
2955;DHT22;1487;51.470;6.938;2023-07-30T13:17:34;23.10;99.90
2955;DHT22;1487;51.470;6.938;2023-07-30T13:20:01;22.90;99.90
2955;DHT22;1487;51.470;6.938;2023-07-30T13:22:29;23.20;99.90
2955;DHT22;1487;51.470;6.938;2023-07-30T13:24:56;23.80;99.90
2955;DHT22;1487;51.470;6.938;2023-07-30T13:27:23;23.60;98.40
2955;DHT22;1487;51.470;6.938;2023-07-30T13:29:49;24.10;98.80
2955;DHT22;1487;51.470;6.938;2023-07-30T13:32:17;24.50;97.70
2955;DHT22;1487;51.470;6.938;2023-07-30T13:34:44;24.70;96.90
2955;DHT22;1487;51.470;6.938;2023-07-30T13:37:11;25.20;96.20
2955;DHT22;1487;51.470;6.938;2023-07-30T13:39:38;25.00;94.30
2955;DHT22;1487;51.470;6.938;2023-07-30T13:42:05;24.10;96.50
2955;DHT22;1487;51.470;6.938;2023-07-30T13:44:32;23.90;96.90
2955;DHT22;1487;51.470;6.938;2023-07-30T13:46:59;23.70;99.90
2955;DHT22;1487;51.470;6.938;2023-07-30T13:49:27;23.70;99.90
2955;DHT22;1487;51.470;6.938;2023-07-30T13:51:53;23.80;99.90
2955;DHT22;1487;51.470;6.938;2023-07-30T13:54:20;24.50;99.90
2955;DHT22;1487;51.470;6.938;2023-07-30T13:56:47;24.00;99.90
2955;DHT22;1487;51.470;6.938;2023-07-30T13:59:14;23.40;99.90
2955;DHT22;1487;51.470;6.938;2023-07-30T14:01:41;23.00;99.90
2955;DHT22;1487;51.470;6.938;2023-07-30T14:04:07;22.60;99.90
2955;DHT22;1487;51.470;6.938;2023-07-30T14:06:35;22.20;99.90
2955;DHT22;1487;51.470;6.938;2023-07-30T14:09:02;21.90;99.90
2955;DHT22;1487;51.470;6.938;2023-07-30T14:11:30;21.60;99.90
2955;DHT22;1487;51.470;6.938;2023-07-30T14:13:57;21.40;99.90
2955;DHT22;1487;51.470;6.938;2023-07-30T14:16:24;21.10;99.90
2955;DHT22;1487;51.470;6.938;2023-07-30T14:18:51;21.00;99.90
2955;DHT22;1487;51.470;6.938;2023-07-30T14:21:18;20.90;99.90
2955;DHT22;1487;51.470;6.938;2023-07-30T14:23:46;20.80;99.90
2955;DHT22;1487;51.470;6.938;2023-07-30T14:26:12;20.70;99.90
2955;DHT22;1487;51.470;6.938;2023-07-30T14:28:39;20.50;99.90
2955;DHT22;1487;51.470;6.938;2023-07-30T14:31:07;20.60;99.90
2955;DHT22;1487;51.470;6.938;2023-07-30T14:33:33;20.90;99.90
2955;DHT22;1487;51.470;6.938;2023-07-30T14:36:00;21.30;99.90
2955;DHT22;1487;51.470;6.938;2023-07-30T14:38:28;22.10;99.90
2955;DHT22;1487;51.470;6.938;2023-07-30T14:40:58;22.80;99.90
2955;DHT22;1487;51.470;6.938;2023-07-30T14:43:24;23.00;99.90
2955;DHT22;1487;51.470;6.938;2023-07-30T14:45:51;23.00;99.90
2955;DHT22;1487;51.470;6.938;2023-07-30T14:48:18;23.10;99.90
2955;DHT22;1487;51.470;6.938;2023-07-30T14:50:45;23.20;99.90
2955;DHT22;1487;51.470;6.938;2023-07-30T14:53:12;23.10;99.90
2955;DHT22;1487;51.470;6.938;2023-07-30T14:55:38;22.70;99.90
2955;DHT22;1487;51.470;6.938;2023-07-30T14:58:07;22.50;99.90
2955;DHT22;1487;51.470;6.938;2023-07-30T15:00:34;22.10;99.90
2955;DHT22;1487;51.470;6.938;2023-07-30T15:03:01;21.90;99.90
2955;DHT22;1487;51.470;6.938;2023-07-30T15:05:28;21.70;99.90
2955;DHT22;1487;51.470;6.938;2023-07-30T15:07:54;21.40;99.90
2955;DHT22;1487;51.470;6.938;2023-07-30T15:10:21;21.20;99.90
2955;DHT22;1487;51.470;6.938;2023-07-30T15:12:48;21.20;99.90
2955;DHT22;1487;51.470;6.938;2023-07-30T15:15:16;21.10;99.90
2955;DHT22;1487;51.470;6.938;2023-07-30T15:17:43;21.20;99.90
2955;DHT22;1487;51.470;6.938;2023-07-30T15:20:10;21.30;99.90
2955;DHT22;1487;51.470;6.938;2023-07-30T15:22:37;22.00;99.90
2955;DHT22;1487;51.470;6.938;2023-07-30T15:25:05;22.90;99.90
2955;DHT22;1487;51.470;6.938;2023-07-30T15:27:32;23.30;99.90
2955;DHT22;1487;51.470;6.938;2023-07-30T15:29:58;23.10;99.90
2955;DHT22;1487;51.470;6.938;2023-07-30T15:32:28;22.70;99.90
2955;DHT22;1487;51.470;6.938;2023-07-30T15:34:55;22.60;99.90
2955;DHT22;1487;51.470;6.938;2023-07-30T15:37:22;22.30;99.90
2955;DHT22;1487;51.470;6.938;2023-07-30T15:39:48;22.30;99.90
2955;DHT22;1487;51.470;6.938;2023-07-30T15:42:15;22.20;99.90
2955;DHT22;1487;51.470;6.938;2023-07-30T15:44:42;22.10;99.90
2955;DHT22;1487;51.470;6.938;2023-07-30T15:47:09;22.00;99.90
2955;DHT22;1487;51.470;6.938;2023-07-30T15:49:38;22.00;99.90
2955;DHT22;1487;51.470;6.938;2023-07-30T15:52:05;22.10;99.90
2955;DHT22;1487;51.470;6.938;2023-07-30T15:54:33;22.10;99.90
2955;DHT22;1487;51.470;6.938;2023-07-30T15:57:00;22.10;99.90
2955;DHT22;1487;51.470;6.938;2023-07-30T15:59:28;22.10;99.90
2955;DHT22;1487;51.470;6.938;2023-07-30T16:01:55;22.20;99.90
2955;DHT22;1487;51.470;6.938;2023-07-30T16:04:22;22.20;99.90